Create Tblcommutelog Verified Points Advance Search
| # | Trip ID | Id Commuter | Trip Date | Trip Num | Current Lat | Current Lng | Delta Distance | Current Time | Activity | Activity Confidence | Current Speed | |
|---|---|---|---|---|---|---|---|---|---|---|---|---|
| 70781 | 250630_780998_16415274_0900 | 780998 | (not set) | (not set) | 39.025289367476 | -77.206189613264 | 2.8034 | 2025-06-30 13:05:50.251 | in_vehicle | 100 | 7.0766314697757 | |
| 70782 | 250630_780836_6461772_0837 | 780836 | (not set) | (not set) | 38.885149076785 | -77.104897708611 | 5.2718 | 2025-06-30 13:05:52.857 | in_vehicle | 100 | -0.44703925898772 | |
| 70783 | 250630_686385_16484655_0828 | 686385 | (not set) | (not set) | 38.811861881607 | -77.055441899496 | 7.6961 | 2025-06-30 13:05:53.289 | in_vehicle | 100 | 9.8750972310388 | |
| 70784 | 250630_108110_16500693_0849 | 108110 | (not set) | (not set) | 38.924856483608 | -77.052533445385 | 4.9785 | 2025-06-30 13:05:53.343 | in_vehicle | 100 | -0.44703925898772 | |
| 70785 | 250630_774352_6414064_0820 | 774352 | (not set) | (not set) | 38.943763151801 | -77.080904580724 | 3.3893 | 2025-06-30 13:05:54.179 | in_vehicle | 100 | 4.9084910636852 | |
| 70786 | 250630_769309_6461772_0825 | 769309 | (not set) | (not set) | 38.895255573289 | -77.041663481036 | 26.4884 | 2025-06-30 13:06:00.103 | in_vehicle | 100 | -0.44703925898772 | |
| 70787 | 250630_769309_6461772_0825 | 769309 | (not set) | (not set) | 38.895253857742 | -77.04167569682 | 26.4884 | 2025-06-30 13:06:00.117 | in_vehicle | 100 | 0 | |
| 70788 | 250630_748111_16508640_0812 | 748111 | (not set) | (not set) | 38.912556637153 | -77.188122891751 | 12.0522 | 2025-06-30 13:06:01.295 | in_vehicle | 100 | 11.479968170805 | |
| 70789 | 250630_780998_16415274_0900 | 780998 | (not set) | (not set) | 39.023463730794 | -77.206894382206 | 2.9349 | 2025-06-30 13:06:02.193 | in_vehicle | 100 | 8.0824698024981 | |
| 70790 | 250630_698742_16447752_0839 | 698742 | (not set) | (not set) | 38.875591465617 | -77.037801169917 | 12.1189 | 2025-06-30 13:06:02.363 | in_vehicle | 100 | 6.7413520255349 | |
| 70791 | 250630_761648_16500693_0855 | 761648 | (not set) | (not set) | 38.935091148428 | -76.979910255506 | 1.6387 | 2025-06-30 13:06:02.458 | on_bicycle | 100 | 2.0832029468828 | |
| 70792 | 250630_781000_16415274_0841 | 781000 | (not set) | (not set) | 38.900100432651 | -77.039560960291 | 2.0645 | 2025-06-30 13:06:02.695 | on_foot | 100 | 0.73761477732975 | |
| 70793 | 250630_686385_16484655_0828 | 686385 | (not set) | (not set) | 38.809882886787 | -77.057028387268 | 7.8572 | 2025-06-30 13:06:04.238 | in_vehicle | 100 | 10.57247847506 | |
| 70794 | 250630_784617_16489083_0847 | 784617 | (not set) | (not set) | 38.806500143279 | -77.061918392245 | 11.8413 | 2025-06-30 13:06:17.667 | in_vehicle | 100 | 0 | |
| 70795 | 250630_769309_6461772_0825 | 769309 | (not set) | (not set) | 38.895732542073 | -77.041688139299 | 26.5214 | 2025-06-30 13:06:18.204 | in_vehicle | 100 | 2.2173147245791 | |
| 70796 | 250630_686385_16484655_0828 | 686385 | (not set) | (not set) | 38.807786388839 | -77.059412470812 | 8.0508 | 2025-06-30 13:06:19.223 | in_vehicle | 100 | 8.9854891056533 | |
| 70797 | 250630_780789_16421763_0751 | 780789 | (not set) | (not set) | 38.910048660365 | -77.186963372435 | 37.0816 | 2025-06-30 13:06:19.246 | unknown | 100 | 10.107557645712 | |
| 70798 | 250630_780998_16415274_0900 | 780998 | (not set) | (not set) | 39.021302587055 | -77.207780755742 | 3.0914 | 2025-06-30 13:06:19.327 | in_vehicle | 100 | 6.5982994626588 | |
| 70799 | 250630_781766_16459526_0810 | 781766 | (not set) | (not set) | 38.8452555 | -77.080354 | 35.2196 | 2025-06-30 13:06:19.892 | in_vehicle | 100 | 12.718266918201 | |
| 70800 | 250630_715163_16479164_0844 | 715163 | (not set) | (not set) | 38.9035412 | -77.0188428 | 0.3787 | 2025-06-30 13:06:19.959 | in_vehicle | 100 | -0.44703925898772 |